Time;durP1;ratioP1;P1;durP2;ratioP2;P2;SDS_P1;SDS_P2;PMS_P1;PMS_P2;Temp;Humidity;BMP_temperature;BMP_pressure;BME280_temperature;BME280_humidity;BME280_pressure;Samples;Min_cycle;Max_cycle;Signal;HPM_P1;HPM_P2
2021/11/20 00:01:12;;;;;;;11.97;3.90;;;;;;;;;;4990133;28;20460;-74
2021/11/20 00:03:39;;;;;;;12.73;4.37;;;;;;;;;;4993529;28;20203;-73
2021/11/20 00:06:05;;;;;;;17.50;5.03;;;;;;;;;;4990959;28;20544;-74
2021/11/20 00:08:30;;;;;;;17.20;4.70;;;;;;;;;;4992199;28;20511;-73
2021/11/20 00:10:57;;;;;;;13.13;4.57;;;;;;;;;;4996571;28;20177;-73
2021/11/20 00:13:23;;;;;;;11.93;4.20;;;;;;;;;;4994447;28;20543;-73
2021/11/20 00:15:50;;;;;;;15.70;4.43;;;;;;;;;;4992722;28;20449;-73
2021/11/20 00:18:16;;;;;;;16.50;4.73;;;;;;;;;;4992160;28;20455;-72
2021/11/20 00:20:48;;;;;;;12.40;4.17;;;;;;;;;;4996632;28;20490;-75
2021/11/20 00:23:14;;;;;;;12.57;3.40;;;;;;;;;;4994988;28;20170;-74
2021/11/20 00:25:52;;;;;;;10.40;3.87;;;;;;;;;;4991517;28;20448;-73
2021/11/20 00:28:21;;;;;;;14.17;4.20;;;;;;;;;;4989960;28;20417;-74
2021/11/20 00:31:06;;;;;;;15.43;4.67;;;;;;;;;;4996524;28;20514;-73
2021/11/20 00:33:32;;;;;;;9.63;4.07;;;;;;;;;;4991054;28;20424;-73
2021/11/20 00:35:59;;;;;;;11.40;4.80;;;;;;;;;;4995799;28;20974;-73
2021/11/20 00:38:25;;;;;;;13.80;4.50;;;;;;;;;;4994530;28;20461;-73
2021/11/20 00:40:56;;;;;;;13.80;4.17;;;;;;;;;;4995778;28;20436;-73
2021/11/20 00:43:21;;;;;;;12.17;4.23;;;;;;;;;;4997102;28;20420;-73
2021/11/20 00:45:47;;;;;;;15.53;4.43;;;;;;;;;;4991985;28;20517;-73
2021/11/20 00:48:13;;;;;;;15.43;4.33;;;;;;;;;;4994165;28;20281;-73
2021/11/20 00:50:40;;;;;;;16.07;4.90;;;;;;;;;;4990452;28;21007;-73
2021/11/20 00:53:06;;;;;;;12.53;4.37;;;;;;;;;;4991319;28;20235;-74
2021/11/20 00:55:32;;;;;;;9.60;4.20;;;;;;;;;;4991508;28;20449;-73
2021/11/20 00:57:58;;;;;;;12.77;4.30;;;;;;;;;;4992764;28;20987;-72
2021/11/20 01:00:27;;;;;;;11.27;4.43;;;;;;;;;;4994075;28;20201;-72
2021/11/20 01:02:52;;;;;;;8.93;4.60;;;;;;;;;;4991564;28;20958;-73
2021/11/20 01:05:18;;;;;;;13.23;4.70;;;;;;;;;;4986335;28;20452;-73
2021/11/20 01:07:44;;;;;;;10.20;4.50;;;;;;;;;;4990798;28;20197;-73
2021/11/20 01:10:10;;;;;;;10.80;4.40;;;;;;;;;;4993825;28;20810;-73
2021/11/20 01:12:36;;;;;;;11.93;4.80;;;;;;;;;;4991761;28;20219;-74
2021/11/20 01:15:03;;;;;;;12.83;5.63;;;;;;;;;;4990487;28;20452;-72
2021/11/20 01:17:30;;;;;;;14.77;5.60;;;;;;;;;;4992164;28;20731;-72
2021/11/20 01:19:56;;;;;;;11.53;5.47;;;;;;;;;;4993882;28;20429;-73
2021/11/20 01:22:23;;;;;;;16.23;5.93;;;;;;;;;;4990090;28;20420;-73
2021/11/20 01:24:49;;;;;;;17.43;6.30;;;;;;;;;;4994913;28;20177;-73
2021/11/20 01:27:16;;;;;;;10.47;5.53;;;;;;;;;;4991456;28;20444;-73
2021/11/20 01:29:41;;;;;;;16.57;6.50;;;;;;;;;;4994310;28;20445;-73
2021/11/20 01:32:06;;;;;;;12.93;5.67;;;;;;;;;;4993451;28;20444;-73
2021/11/20 01:34:32;;;;;;;13.17;6.10;;;;;;;;;;4993823;28;20193;-73
2021/11/20 01:36:59;;;;;;;15.30;6.43;;;;;;;;;;4993351;28;20174;-72
2021/11/20 01:39:28;;;;;;;13.20;6.43;;;;;;;;;;4990884;28;20841;-73
2021/11/20 01:41:55;;;;;;;14.70;6.23;;;;;;;;;;4988317;28;20428;-74
2021/11/20 01:44:22;;;;;;;12.10;6.77;;;;;;;;;;4988942;28;20438;-72
2021/11/20 01:46:49;;;;;;;10.77;6.63;;;;;;;;;;4988027;28;20479;-73
2021/11/20 01:49:20;;;;;;;9.00;6.53;;;;;;;;;;4991400;28;20468;-75
2021/11/20 01:51:48;;;;;;;13.37;6.63;;;;;;;;;;4992706;28;20467;-74
2021/11/20 01:54:19;;;;;;;14.53;7.20;;;;;;;;;;4992284;28;20564;-75
2021/11/20 01:56:57;;;;;;;12.07;6.97;;;;;;;;;;4990110;28;20555;-73
2021/11/20 01:59:45;;;;;;;15.10;7.73;;;;;;;;;;4992037;28;20536;-73
2021/11/20 02:02:17;;;;;;;17.57;8.07;;;;;;;;;;4988685;28;20423;-73
2021/11/20 02:04:46;;;;;;;9.70;6.37;;;;;;;;;;4991470;28;20425;-73
2021/11/20 02:07:12;;;;;;;15.83;8.90;;;;;;;;;;4990309;28;20444;-73
2021/11/20 02:09:41;;;;;;;12.33;7.00;;;;;;;;;;4990931;28;20965;-73
2021/11/20 02:12:12;;;;;;;13.57;7.20;;;;;;;;;;4994099;28;20231;-73
2021/11/20 02:14:38;;;;;;;12.27;7.60;;;;;;;;;;4995836;28;20413;-73
2021/11/20 02:17:09;;;;;;;12.03;6.77;;;;;;;;;;4987652;28;20421;-72
2021/11/20 02:19:36;;;;;;;14.83;7.40;;;;;;;;;;4994587;28;20440;-73
2021/11/20 02:22:12;;;;;;;13.93;7.90;;;;;;;;;;4986866;28;20432;-74
2021/11/20 02:24:37;;;;;;;11.03;6.73;;;;;;;;;;4993202;28;20424;-74
2021/11/20 02:27:04;;;;;;;15.50;7.93;;;;;;;;;;4989092;28;20505;-73
2021/11/20 02:29:29;;;;;;;14.70;7.00;;;;;;;;;;4997636;28;20178;-76
2021/11/20 02:31:59;;;;;;;12.63;8.27;;;;;;;;;;4988142;28;20440;-73
2021/11/20 02:34:26;;;;;;;18.63;8.70;;;;;;;;;;4989259;28;20224;-72
2021/11/20 02:36:51;;;;;;;14.20;8.10;;;;;;;;;;4990593;28;20449;-73
2021/11/20 02:39:22;;;;;;;15.87;8.97;;;;;;;;;;4993336;28;20503;-72
2021/11/20 02:41:52;;;;;;;13.57;7.50;;;;;;;;;;4992353;28;20177;-73
2021/11/20 02:44:19;;;;;;;14.77;7.30;;;;;;;;;;4990997;28;21868;-74
2021/11/20 02:46:47;;;;;;;17.50;7.53;;;;;;;;;;4988282;28;21025;-73
2021/11/20 02:49:12;;;;;;;15.10;7.60;;;;;;;;;;4994587;28;20442;-73
2021/11/20 02:51:41;;;;;;;12.17;6.90;;;;;;;;;;4988414;28;20464;-73
2021/11/20 02:54:14;;;;;;;10.90;6.73;;;;;;;;;;4986183;28;20523;-74
2021/11/20 02:56:42;;;;;;;27.37;8.77;;;;;;;;;;4986862;28;20479;-74
2021/11/20 02:59:07;;;;;;;16.70;7.33;;;;;;;;;;4991323;28;20472;-74
2021/11/20 03:01:35;;;;;;;13.17;7.87;;;;;;;;;;4991048;28;20490;-73
2021/11/20 03:04:01;;;;;;;12.30;8.07;;;;;;;;;;4995777;28;20647;-73
2021/11/20 03:06:26;;;;;;;10.80;7.53;;;;;;;;;;4991189;28;20546;-73
2021/11/20 03:08:52;;;;;;;13.03;8.03;;;;;;;;;;4993102;28;20674;-74
2021/11/20 03:11:18;;;;;;;13.13;7.70;;;;;;;;;;4992119;28;20189;-73
2021/11/20 03:13:44;;;;;;;17.83;7.20;;;;;;;;;;4992541;28;20749;-74
2021/11/20 03:16:10;;;;;;;14.73;8.30;;;;;;;;;;4992803;28;20688;-73
2021/11/20 03:18:36;;;;;;;17.07;8.27;;;;;;;;;;4990868;28;20522;-73
2021/11/20 03:21:03;;;;;;;14.13;8.13;;;;;;;;;;4991462;28;20186;-73
2021/11/20 03:23:30;;;;;;;12.57;7.20;;;;;;;;;;4984317;28;20243;-73
2021/11/20 03:25:55;;;;;;;12.27;7.80;;;;;;;;;;4992168;28;20482;-73
2021/11/20 03:28:21;;;;;;;11.23;7.80;;;;;;;;;;4991413;28;21544;-73
2021/11/20 03:30:46;;;;;;;13.30;7.00;;;;;;;;;;4987979;28;20208;-73
2021/11/20 03:33:12;;;;;;;17.70;8.87;;;;;;;;;;4995995;28;20193;-74
2021/11/20 03:35:38;;;;;;;14.63;8.47;;;;;;;;;;4990630;28;20332;-74
2021/11/20 03:38:05;;;;;;;13.63;8.47;;;;;;;;;;4994926;28;20205;-73
2021/11/20 03:40:30;;;;;;;16.53;8.87;;;;;;;;;;4992242;28;20446;-73
2021/11/20 03:42:56;;;;;;;16.77;9.10;;;;;;;;;;4989931;28;20436;-73
2021/11/20 03:45:22;;;;;;;14.23;8.33;;;;;;;;;;4988459;28;20691;-73
2021/11/20 03:47:47;;;;;;;14.47;8.47;;;;;;;;;;4988734;28;20266;-73
2021/11/20 03:50:13;;;;;;;15.23;8.20;;;;;;;;;;4991349;28;20596;-73
2021/11/20 03:52:39;;;;;;;13.30;8.40;;;;;;;;;;4989643;28;20607;-73
2021/11/20 03:55:05;;;;;;;16.53;8.40;;;;;;;;;;4990493;28;20590;-73
2021/11/20 03:57:30;;;;;;;17.33;8.20;;;;;;;;;;4987528;28;21523;-73
2021/11/20 03:59:56;;;;;;;19.43;9.10;;;;;;;;;;4994829;28;20178;-73
2021/11/20 04:02:21;;;;;;;12.67;8.77;;;;;;;;;;5002352;28;20177;-74
2021/11/20 04:04:47;;;;;;;15.83;8.60;;;;;;;;;;4991060;28;20192;-74
2021/11/20 04:07:12;;;;;;;16.30;9.73;;;;;;;;;;4990620;28;20566;-73
2021/11/20 04:09:37;;;;;;;17.83;8.50;;;;;;;;;;4997805;28;20222;-73
2021/11/20 04:12:03;;;;;;;16.10;8.90;;;;;;;;;;4997859;28;20177;-74
2021/11/20 04:14:28;;;;;;;15.23;8.97;;;;;;;;;;4992381;28;20186;-72
2021/11/20 04:16:54;;;;;;;16.10;9.40;;;;;;;;;;4997641;28;20190;-73
2021/11/20 04:19:20;;;;;;;12.57;9.17;;;;;;;;;;4995612;28;20216;-73
2021/11/20 04:21:45;;;;;;;13.37;8.50;;;;;;;;;;4997294;28;20432;-73
2021/11/20 04:24:11;;;;;;;12.57;8.30;;;;;;;;;;4997486;28;20181;-73
2021/11/20 04:26:36;;;;;;;12.23;8.60;;;;;;;;;;4995488;28;20212;-73
2021/11/20 04:29:02;;;;;;;12.00;7.83;;;;;;;;;;4994674;28;20173;-73
2021/11/20 04:31:27;;;;;;;14.53;8.63;;;;;;;;;;4995246;28;20177;-73
2021/11/20 04:33:54;;;;;;;15.80;8.80;;;;;;;;;;4994036;28;20181;-73
2021/11/20 04:36:21;;;;;;;12.17;8.77;;;;;;;;;;4993465;28;20225;-73
2021/11/20 04:38:46;;;;;;;14.30;8.40;;;;;;;;;;4997404;28;20452;-74
2021/11/20 04:41:13;;;;;;;18.57;8.50;;;;;;;;;;4992608;28;20480;-73
2021/11/20 04:43:39;;;;;;;11.20;8.07;;;;;;;;;;4992598;28;20177;-72
2021/11/20 04:46:04;;;;;;;13.17;8.30;;;;;;;;;;4992535;28;21041;-73
2021/11/20 04:48:29;;;;;;;12.07;8.30;;;;;;;;;;4995056;28;20193;-72
2021/11/20 04:50:56;;;;;;;12.33;7.67;;;;;;;;;;4991509;28;20215;-73
2021/11/20 04:53:22;;;;;;;9.73;7.17;;;;;;;;;;4989965;28;20190;-73
2021/11/20 04:55:47;;;;;;;12.90;7.50;;;;;;;;;;4989200;28;20941;-72
2021/11/20 04:58:13;;;;;;;15.50;8.47;;;;;;;;;;5001080;28;20276;-73
2021/11/20 05:00:40;;;;;;;12.17;7.33;;;;;;;;;;4992220;28;20212;-74
2021/11/20 05:03:07;;;;;;;14.10;7.07;;;;;;;;;;4997517;28;20663;-73
2021/11/20 05:05:33;;;;;;;17.30;7.23;;;;;;;;;;4991911;28;20561;-73
2021/11/20 05:07:59;;;;;;;11.90;6.20;;;;;;;;;;4994633;28;20428;-73
2021/11/20 05:10:24;;;;;;;11.47;6.70;;;;;;;;;;4990574;28;20433;-74
2021/11/20 05:12:49;;;;;;;10.13;6.90;;;;;;;;;;4996527;28;20659;-73
2021/11/20 05:15:15;;;;;;;9.90;7.20;;;;;;;;;;4996798;28;20209;-73
2021/11/20 05:17:41;;;;;;;11.47;7.50;;;;;;;;;;4993215;28;20670;-72
2021/11/20 05:20:07;;;;;;;11.97;7.90;;;;;;;;;;4996017;28;20430;-74
2021/11/20 05:22:32;;;;;;;10.87;6.80;;;;;;;;;;4987914;28;20182;-77
2021/11/20 05:24:58;;;;;;;11.40;7.67;;;;;;;;;;4990557;28;20506;-73
2021/11/20 05:27:23;;;;;;;12.10;7.40;;;;;;;;;;4993004;28;20173;-75
2021/11/20 05:29:56;;;;;;;14.00;7.47;;;;;;;;;;4990011;28;20252;-71
2021/11/20 05:32:21;;;;;;;11.10;7.73;;;;;;;;;;4992611;28;20169;-72
2021/11/20 05:34:47;;;;;;;13.13;8.00;;;;;;;;;;4994155;28;20415;-72
2021/11/20 05:37:12;;;;;;;10.00;7.33;;;;;;;;;;4991590;28;20188;-72
2021/11/20 05:39:38;;;;;;;9.40;8.20;;;;;;;;;;4991370;28;20201;-72
2021/11/20 05:42:04;;;;;;;13.30;8.60;;;;;;;;;;4993307;28;20559;-72
2021/11/20 05:44:29;;;;;;;13.13;7.30;;;;;;;;;;4991443;28;20432;-72
2021/11/20 05:46:59;;;;;;;16.23;8.90;;;;;;;;;;4992445;28;20455;-72
2021/11/20 05:49:25;;;;;;;14.70;7.40;;;;;;;;;;4992621;28;20648;-72
2021/11/20 05:51:50;;;;;;;18.90;9.07;;;;;;;;;;4989769;28;20424;-74
2021/11/20 05:54:16;;;;;;;12.77;7.47;;;;;;;;;;4990816;28;20846;-72
2021/11/20 05:56:41;;;;;;;14.63;8.03;;;;;;;;;;4990052;28;20189;-72
2021/11/20 05:59:06;;;;;;;14.77;8.57;;;;;;;;;;4991622;28;20294;-72
2021/11/20 06:01:31;;;;;;;17.37;7.70;;;;;;;;;;4994033;28;20212;-72
2021/11/20 06:03:57;;;;;;;12.50;7.30;;;;;;;;;;4992752;28;20177;-73
2021/11/20 06:06:22;;;;;;;16.57;8.00;;;;;;;;;;4990589;28;20208;-72
2021/11/20 06:08:48;;;;;;;17.00;8.00;;;;;;;;;;4993584;28;20173;-72
2021/11/20 06:11:13;;;;;;;11.40;8.00;;;;;;;;;;4991697;28;20185;-72
2021/11/20 06:13:38;;;;;;;9.07;7.00;;;;;;;;;;4990825;28;20190;-72
2021/11/20 06:16:04;;;;;;;13.97;8.10;;;;;;;;;;4989224;28;20248;-73
2021/11/20 06:18:30;;;;;;;10.23;7.00;;;;;;;;;;4993282;28;20231;-71
2021/11/20 06:20:55;;;;;;;9.00;6.90;;;;;;;;;;4995239;28;20908;-73
2021/11/20 06:23:22;;;;;;;11.10;7.50;;;;;;;;;;4994678;28;20177;-73
2021/11/20 06:25:47;;;;;;;10.70;7.20;;;;;;;;;;4993036;28;20613;-73
2021/11/20 06:28:13;;;;;;;9.90;7.37;;;;;;;;;;4996458;28;20439;-73
2021/11/20 06:30:38;;;;;;;10.70;7.10;;;;;;;;;;4994384;28;20878;-73
2021/11/20 06:33:05;;;;;;;8.67;6.93;;;;;;;;;;4988324;28;20186;-73
2021/11/20 06:35:31;;;;;;;9.60;7.30;;;;;;;;;;4991109;28;20489;-73
2021/11/20 06:37:57;;;;;;;11.60;6.80;;;;;;;;;;4991975;28;20468;-76
2021/11/20 06:40:27;;;;;;;10.50;7.40;;;;;;;;;;4992287;28;20430;-78
2021/11/20 06:42:53;;;;;;;8.47;7.43;;;;;;;;;;4991070;28;20190;-77
2021/11/20 06:45:20;;;;;;;11.57;7.40;;;;;;;;;;4992694;28;20448;-73
2021/11/20 06:47:47;;;;;;;10.27;7.80;;;;;;;;;;4991739;28;20429;-73
2021/11/20 06:50:12;;;;;;;15.63;8.70;;;;;;;;;;4990314;28;20527;-73
2021/11/20 06:52:38;;;;;;;10.37;7.93;;;;;;;;;;4990073;28;20811;-73
2021/11/20 06:55:04;;;;;;;11.63;8.20;;;;;;;;;;4991360;28;20193;-73
2021/11/20 07:00:30;;;;;;;18.40;8.73;;;;;;;;;;4992635;28;20429;-73
2021/11/20 07:03:03;;;;;;;12.30;8.07;;;;;;;;;;4995857;28;20921;-73
2021/11/20 07:05:30;;;;;;;14.13;8.80;;;;;;;;;;4992011;28;21491;-72
2021/11/20 07:07:56;;;;;;;13.37;7.83;;;;;;;;;;4990112;28;20428;-73
2021/11/20 07:10:22;;;;;;;16.03;9.40;;;;;;;;;;4990589;28;20472;-73
2021/11/20 07:12:52;;;;;;;12.63;9.10;;;;;;;;;;4996116;28;20428;-73
2021/11/20 07:15:18;;;;;;;12.80;9.13;;;;;;;;;;4991269;28;20923;-72
2021/11/20 07:17:43;;;;;;;13.40;9.00;;;;;;;;;;4989345;28;20498;-73
2021/11/20 07:20:09;;;;;;;12.10;8.93;;;;;;;;;;4992644;28;21167;-73
2021/11/20 07:22:34;;;;;;;11.53;8.40;;;;;;;;;;4991765;28;20181;-73
2021/11/20 07:25:00;;;;;;;13.10;8.10;;;;;;;;;;4989313;28;20208;-73
2021/11/20 07:27:25;;;;;;;10.47;7.53;;;;;;;;;;4991527;28;20175;-73
2021/11/20 07:29:50;;;;;;;13.07;9.17;;;;;;;;;;4990324;28;20822;-72
2021/11/20 07:32:16;;;;;;;12.13;8.80;;;;;;;;;;4990863;28;20943;-73
2021/11/20 07:34:41;;;;;;;12.90;8.83;;;;;;;;;;4986338;28;23135;-73
2021/11/20 07:37:07;;;;;;;11.63;9.43;;;;;;;;;;4991125;28;20209;-73
2021/11/20 07:39:33;;;;;;;10.30;8.87;;;;;;;;;;4992111;28;20208;-72
2021/11/20 07:41:58;;;;;;;9.07;8.10;;;;;;;;;;4990086;28;20177;-72
2021/11/20 07:44:23;;;;;;;10.57;9.03;;;;;;;;;;5000114;28;20435;-73
2021/11/20 07:46:49;;;;;;;10.70;9.33;;;;;;;;;;4996344;28;20204;-73
2021/11/20 07:49:14;;;;;;;12.93;9.67;;;;;;;;;;4999844;28;20196;-73
2021/11/20 07:51:40;;;;;;;18.63;11.17;;;;;;;;;;5002786;28;20172;-73
2021/11/20 07:54:06;;;;;;;16.57;9.30;;;;;;;;;;5002064;28;20208;-73
2021/11/20 07:56:33;;;;;;;14.20;10.07;;;;;;;;;;5004204;28;20487;-73
2021/11/20 07:58:58;;;;;;;12.73;9.23;;;;;;;;;;5003455;28;20205;-73
2021/11/20 08:01:24;;;;;;;11.83;10.63;;;;;;;;;;4999205;28;20421;-73
2021/11/20 08:03:50;;;;;;;15.17;10.73;;;;;;;;;;5000784;28;20173;-73
2021/11/20 08:06:15;;;;;;;10.40;9.33;;;;;;;;;;4996549;28;20197;-73
2021/11/20 08:08:40;;;;;;;13.47;10.20;;;;;;;;;;5000667;28;20190;-73
2021/11/20 08:11:06;;;;;;;14.03;10.70;;;;;;;;;;4999183;28;20217;-73
2021/11/20 08:13:35;;;;;;;15.33;11.63;;;;;;;;;;5000075;28;20656;-73
2021/11/20 08:16:00;;;;;;;14.70;10.57;;;;;;;;;;4996336;28;20463;-73
2021/11/20 08:18:25;;;;;;;16.27;12.07;;;;;;;;;;5000212;28;20455;-74
2021/11/20 08:20:51;;;;;;;12.60;11.30;;;;;;;;;;4999824;28;20177;-74
2021/11/20 08:23:16;;;;;;;13.83;12.43;;;;;;;;;;4999236;28;20180;-73
2021/11/20 08:25:44;;;;;;;22.27;12.70;;;;;;;;;;4998672;28;20197;-74
2021/11/20 08:28:11;;;;;;;15.73;11.93;;;;;;;;;;4997223;28;20722;-73
2021/11/20 08:30:36;;;;;;;19.97;12.37;;;;;;;;;;4997669;28;20468;-73
2021/11/20 08:33:02;;;;;;;18.20;13.50;;;;;;;;;;4997730;28;20464;-72
2021/11/20 08:35:28;;;;;;;15.30;13.70;;;;;;;;;;5000446;28;20564;-74
2021/11/20 08:37:53;;;;;;;16.37;13.03;;;;;;;;;;4995076;28;20485;-74
2021/11/20 08:40:21;;;;;;;22.77;12.30;;;;;;;;;;4997874;28;21302;-74
2021/11/20 08:42:46;;;;;;;15.70;14.00;;;;;;;;;;4994108;28;20180;-74
2021/11/20 08:45:13;;;;;;;14.90;13.23;;;;;;;;;;4995307;28;20958;-74
2021/11/20 08:47:38;;;;;;;16.23;12.97;;;;;;;;;;5005185;28;20176;-74
2021/11/20 08:50:05;;;;;;;15.70;13.93;;;;;;;;;;4998319;28;20822;-74
2021/11/20 08:52:30;;;;;;;14.90;12.80;;;;;;;;;;4992389;28;23438;-74
2021/11/20 08:54:56;;;;;;;16.00;12.27;;;;;;;;;;4992166;28;20465;-77
2021/11/20 08:57:25;;;;;;;13.20;11.80;;;;;;;;;;4988773;28;20200;-74
2021/11/20 08:59:50;;;;;;;14.07;12.67;;;;;;;;;;4994383;28;20461;-73
2021/11/20 09:02:30;;;;;;;19.07;14.33;;;;;;;;;;4992151;28;20459;-77
2021/11/20 09:05:01;;;;;;;15.70;13.00;;;;;;;;;;4995770;28;20684;-74
2021/11/20 09:07:36;;;;;;;14.90;13.30;;;;;;;;;;4988490;28;20432;-74
2021/11/20 09:10:12;;;;;;;13.77;12.20;;;;;;;;;;4993112;28;20444;-72
2021/11/20 09:12:37;;;;;;;15.13;12.80;;;;;;;;;;4996352;28;20464;-69
2021/11/20 09:15:06;;;;;;;17.17;12.43;;;;;;;;;;4990615;28;20676;-74
2021/11/20 09:17:32;;;;;;;18.00;13.70;;;;;;;;;;4993950;28;20285;-73
2021/11/20 09:19:57;;;;;;;15.70;13.10;;;;;;;;;;4993803;28;20539;-75
2021/11/20 09:22:22;;;;;;;17.30;13.57;;;;;;;;;;4993179;28;20189;-73
2021/11/20 09:24:48;;;;;;;15.73;14.03;;;;;;;;;;4986188;28;20272;-73
2021/11/20 09:27:14;;;;;;;17.50;14.13;;;;;;;;;;4993348;28;20209;-74
2021/11/20 09:29:40;;;;;;;15.77;14.13;;;;;;;;;;4991115;28;20432;-72
2021/11/20 09:32:06;;;;;;;15.63;14.03;;;;;;;;;;4993423;28;20181;-73
2021/11/20 09:34:32;;;;;;;15.87;13.30;;;;;;;;;;4995209;28;20190;-73
2021/11/20 09:36:58;;;;;;;16.17;14.40;;;;;;;;;;4995308;28;20475;-73
2021/11/20 09:39:25;;;;;;;15.87;13.50;;;;;;;;;;4996106;28;20212;-73
2021/11/20 09:42:06;;;;;;;16.83;15.03;;;;;;;;;;4992875;28;20429;-71
2021/11/20 09:44:33;;;;;;;17.07;13.93;;;;;;;;;;4998517;28;20432;-73
2021/11/20 09:47:05;;;;;;;17.20;14.80;;;;;;;;;;4993514;28;20885;-72
2021/11/20 09:49:35;;;;;;;15.43;13.10;;;;;;;;;;4992296;28;20437;-74
2021/11/20 09:52:01;;;;;;;16.10;13.83;;;;;;;;;;4991982;28;20438;-73
2021/11/20 09:54:28;;;;;;;17.10;14.53;;;;;;;;;;4991047;28;20440;-72
2021/11/20 09:56:59;;;;;;;20.77;15.00;;;;;;;;;;4991780;28;20817;-73
2021/11/20 09:59:33;;;;;;;15.37;13.77;;;;;;;;;;4992785;28;20472;-72
2021/11/20 10:02:19;;;;;;;16.10;14.30;;;;;;;;;;4993046;28;21123;-73
2021/11/20 10:04:44;;;;;;;18.00;14.77;;;;;;;;;;4993418;28;20436;-73
2021/11/20 10:07:30;;;;;;;16.40;14.70;;;;;;;;;;4990973;28;20433;-73
2021/11/20 10:09:59;;;;;;;17.00;14.87;;;;;;;;;;4986967;28;20608;-71
2021/11/20 10:12:30;;;;;;;15.90;14.23;;;;;;;;;;4986162;28;20449;-75
2021/11/20 10:14:58;;;;;;;17.63;15.50;;;;;;;;;;4988200;28;20456;-74
2021/11/20 10:17:26;;;;;;;18.33;15.73;;;;;;;;;;4984359;28;20478;-74
2021/11/20 10:19:54;;;;;;;15.70;14.10;;;;;;;;;;4995073;28;20429;-75
2021/11/20 10:22:25;;;;;;;19.40;16.50;;;;;;;;;;4988385;28;20523;-75
2021/11/20 10:25:07;;;;;;;19.20;15.83;;;;;;;;;;4987558;28;20421;-76
2021/11/20 10:27:55;;;;;;;15.90;14.33;;;;;;;;;;4993346;28;20522;-73
2021/11/20 10:30:29;;;;;;;16.37;14.50;;;;;;;;;;4990437;28;20420;-74
2021/11/20 10:32:57;;;;;;;17.33;15.33;;;;;;;;;;4983423;28;20420;-74
2021/11/20 10:35:25;;;;;;;17.13;15.40;;;;;;;;;;4991219;28;20447;-72
2021/11/20 10:37:56;;;;;;;17.83;15.90;;;;;;;;;;4991865;28;20476;-76
2021/11/20 10:40:24;;;;;;;16.30;14.80;;;;;;;;;;4994935;28;20416;-74
2021/11/20 10:42:58;;;;;;;21.00;15.43;;;;;;;;;;4995430;28;20421;-77
2021/11/20 10:45:33;;;;;;;18.43;15.87;;;;;;;;;;4988748;28;20526;-75
2021/11/20 10:48:00;;;;;;;17.47;15.20;;;;;;;;;;4982514;28;20910;-79
2021/11/20 10:50:28;;;;;;;18.30;16.30;;;;;;;;;;4990561;28;20428;-71
2021/11/20 10:53:18;;;;;;;19.50;15.20;;;;;;;;;;4992689;28;20955;-81
2021/11/20 10:56:02;;;;;;;17.07;14.80;;;;;;;;;;4988640;28;20456;-79
2021/11/20 10:58:37;;;;;;;20.90;16.17;;;;;;;;;;4994489;28;20471;-80
2021/11/20 11:01:11;;;;;;;19.60;16.00;;;;;;;;;;4992350;28;20413;-79
2021/11/20 11:03:39;;;;;;;21.83;17.60;;;;;;;;;;4993962;28;20436;-79
2021/11/20 11:06:24;;;;;;;20.03;17.93;;;;;;;;;;4991167;28;20486;-80
2021/11/20 11:09:08;;;;;;;19.10;16.67;;;;;;;;;;4985264;28;22072;-80
2021/11/20 11:11:41;;;;;;;18.93;15.67;;;;;;;;;;4992999;28;20524;-80
2021/11/20 11:14:13;;;;;;;20.60;16.40;;;;;;;;;;4989033;28;20428;-79
2021/11/20 11:16:44;;;;;;;19.13;16.97;;;;;;;;;;4986184;28;20472;-80
2021/11/20 11:19:09;;;;;;;17.90;16.10;;;;;;;;;;4991429;28;20452;-80
2021/11/20 11:21:41;;;;;;;17.77;15.90;;;;;;;;;;4994091;28;20429;-79
2021/11/20 11:24:09;;;;;;;17.50;15.60;;;;;;;;;;4995060;28;20225;-77
2021/11/20 11:26:53;;;;;;;17.70;15.90;;;;;;;;;;4996960;28;20488;-78
2021/11/20 11:29:30;;;;;;;19.73;17.77;;;;;;;;;;4999069;28;20431;-80
2021/11/20 11:31:56;;;;;;;20.07;17.83;;;;;;;;;;4991120;28;20580;-79
2021/11/20 11:34:30;;;;;;;25.33;17.40;;;;;;;;;;4999807;28;20428;-82
2021/11/20 11:37:08;;;;;;;20.60;18.40;;;;;;;;;;4997813;28;20189;-82
2021/11/20 11:39:34;;;;;;;21.20;18.50;;;;;;;;;;4994124;28;20970;-82
2021/11/20 11:42:11;;;;;;;20.60;18.40;;;;;;;;;;4995823;28;20491;-82
2021/11/20 11:44:54;;;;;;;21.33;19.10;;;;;;;;;;4993941;28;20172;-80
2021/11/20 11:47:30;;;;;;;20.37;18.17;;;;;;;;;;5010974;28;20420;-82
2021/11/20 11:49:59;;;;;;;20.57;17.57;;;;;;;;;;4993239;28;20507;-82
2021/11/20 11:52:30;;;;;;;19.30;17.37;;;;;;;;;;4993608;28;20420;-81
2021/11/20 11:55:05;;;;;;;21.27;18.93;;;;;;;;;;4991288;28;20460;-81
2021/11/20 11:57:49;;;;;;;21.27;19.10;;;;;;;;;;4992409;28;20436;-82
2021/11/20 12:00:38;;;;;;;19.30;17.30;;;;;;;;;;4993637;28;20846;-79
2021/11/20 12:03:29;;;;;;;22.30;19.90;;;;;;;;;;4988250;28;20444;-80
2021/11/20 12:06:03;;;;;;;20.60;18.40;;;;;;;;;;4991390;28;20805;-82
2021/11/20 12:08:36;;;;;;;20.03;18.00;;;;;;;;;;4989251;28;20926;-81
2021/11/20 12:11:04;;;;;;;23.23;18.50;;;;;;;;;;4990406;28;20968;-81
2021/11/20 12:13:44;;;;;;;20.87;18.27;;;;;;;;;;4995978;28;20844;-79
2021/11/20 12:16:21;;;;;;;21.53;18.47;;;;;;;;;;4992287;28;20938;-80
2021/11/20 12:18:49;;;;;;;19.50;17.50;;;;;;;;;;4996416;28;20451;-79
2021/11/20 12:21:22;;;;;;;19.50;17.47;;;;;;;;;;4997966;28;20501;-78
2021/11/20 12:23:59;;;;;;;19.50;17.50;;;;;;;;;;4994471;28;20431;-78
2021/11/20 12:26:40;;;;;;;20.17;18.10;;;;;;;;;;4998125;28;21004;-82
2021/11/20 12:29:24;;;;;;;22.63;19.33;;;;;;;;;;5003265;28;20486;-81
2021/11/20 12:31:55;;;;;;;20.93;18.73;;;;;;;;;;5002241;28;20423;-78
2021/11/20 12:34:46;;;;;;;21.07;18.93;;;;;;;;;;4995874;28;20530;-81
2021/11/20 12:37:30;;;;;;;22.87;20.33;;;;;;;;;;4993703;28;20479;-80
2021/11/20 12:39:56;;;;;;;20.53;18.43;;;;;;;;;;4993854;28;20441;-80
2021/11/20 12:42:40;;;;;;;19.50;17.50;;;;;;;;;;4991216;28;20447;-80
2021/11/20 12:45:24;;;;;;;22.33;19.97;;;;;;;;;;4991425;28;20239;-80
2021/11/20 12:47:59;;;;;;;19.40;17.40;;;;;;;;;;4996413;28;20467;-79
2021/11/20 12:50:27;;;;;;;22.20;19.80;;;;;;;;;;4989496;28;20435;-79
2021/11/20 12:52:56;;;;;;;21.87;19.67;;;;;;;;;;4994592;28;20447;-80
2021/11/20 12:55:21;;;;;;;20.80;18.57;;;;;;;;;;4994049;28;20455;-80
2021/11/20 12:57:48;;;;;;;21.03;19.03;;;;;;;;;;4992485;28;21262;-80
2021/11/20 13:00:13;;;;;;;23.53;21.10;;;;;;;;;;4997283;28;20185;-79
2021/11/20 13:02:41;;;;;;;21.97;19.70;;;;;;;;;;4997670;28;20440;-81
2021/11/20 13:05:22;;;;;;;25.93;21.10;;;;;;;;;;4993897;28;20208;-81
2021/11/20 13:07:49;;;;;;;24.07;21.60;;;;;;;;;;4990785;28;20429;-82
2021/11/20 13:10:21;;;;;;;25.70;22.20;;;;;;;;;;4993516;28;20429;-80
2021/11/20 13:12:50;;;;;;;22.67;20.20;;;;;;;;;;4993264;28;20441;-77
2021/11/20 13:15:25;;;;;;;23.30;20.80;;;;;;;;;;4996234;28;20460;-80
2021/11/20 13:17:50;;;;;;;21.43;19.13;;;;;;;;;;4993480;28;20459;-81
2021/11/20 13:20:24;;;;;;;21.70;19.17;;;;;;;;;;4996717;28;20752;-79
2021/11/20 13:23:02;;;;;;;24.17;20.20;;;;;;;;;;4990675;28;20172;-80
2021/11/20 13:25:28;;;;;;;22.20;19.90;;;;;;;;;;4990276;28;21077;-79
2021/11/20 13:27:57;;;;;;;24.20;20.90;;;;;;;;;;4993514;28;20514;-79
2021/11/20 13:30:26;;;;;;;21.87;19.53;;;;;;;;;;4995720;28;20439;-79
2021/11/20 13:32:53;;;;;;;23.20;20.80;;;;;;;;;;4994255;28;20424;-79
2021/11/20 13:35:29;;;;;;;21.43;19.13;;;;;;;;;;4994073;28;20475;-78
2021/11/20 13:37:56;;;;;;;22.53;20.10;;;;;;;;;;4996106;28;20470;-80
2021/11/20 13:40:23;;;;;;;24.30;20.47;;;;;;;;;;4994328;28;20516;-79
2021/11/20 13:42:48;;;;;;;23.27;20.63;;;;;;;;;;4995874;28;20428;-78
2021/11/20 13:45:15;;;;;;;23.43;20.97;;;;;;;;;;4993879;28;20452;-80
2021/11/20 13:47:43;;;;;;;22.97;19.73;;;;;;;;;;4995939;28;20185;-80
2021/11/20 13:50:08;;;;;;;22.00;19.77;;;;;;;;;;4995329;28;20863;-82
2021/11/20 13:52:34;;;;;;;23.90;20.53;;;;;;;;;;4993812;28;20515;-80
2021/11/20 13:55:00;;;;;;;21.63;19.33;;;;;;;;;;4994697;28;20194;-80
2021/11/20 13:57:36;;;;;;;20.77;18.57;;;;;;;;;;4997954;28;20186;-81
2021/11/20 14:00:06;;;;;;;18.67;16.67;;;;;;;;;;4994922;28;20435;-80
2021/11/20 14:02:31;;;;;;;19.50;16.90;;;;;;;;;;4996606;28;20922;-80
2021/11/20 14:05:01;;;;;;;20.70;18.60;;;;;;;;;;4994711;28;20455;-79
2021/11/20 14:07:33;;;;;;;20.10;17.10;;;;;;;;;;4995910;28;20200;-80
2021/11/20 14:10:01;;;;;;;20.23;17.47;;;;;;;;;;4996603;28;20427;-78
2021/11/20 14:12:36;;;;;;;19.13;17.20;;;;;;;;;;4993063;28;20419;-78
2021/11/20 14:15:07;;;;;;;20.00;16.33;;;;;;;;;;4997523;28;20436;-81
2021/11/20 14:17:33;;;;;;;20.43;17.80;;;;;;;;;;4990478;28;20859;-78
2021/11/20 14:20:09;;;;;;;18.20;16.07;;;;;;;;;;4992208;28;20806;-81
2021/11/20 14:22:38;;;;;;;19.03;17.03;;;;;;;;;;4993459;28;20431;-80
2021/11/20 14:25:06;;;;;;;19.27;17.23;;;;;;;;;;4993217;28;20467;-81
2021/11/20 14:27:32;;;;;;;19.27;17.17;;;;;;;;;;4990140;28;20543;-83
2021/11/20 14:29:57;;;;;;;20.20;18.00;;;;;;;;;;4995326;28;20507;-79
2021/11/20 14:32:23;;;;;;;20.80;17.77;;;;;;;;;;4992411;28;21077;-79
2021/11/20 14:34:48;;;;;;;20.27;18.10;;;;;;;;;;4990151;28;20224;-79